createdAt,value
2018-02-20T00:00:30.299Z,25.36
2018-02-20T00:01:30.314Z,25.35
2018-02-20T00:02:30.290Z,25.41
2018-02-20T00:03:30.286Z,25.36
2018-02-20T00:04:30.284Z,25.44
2018-02-20T00:05:30.282Z,25.38
2018-02-20T00:06:30.278Z,25.38
2018-02-20T00:07:30.271Z,25.36
2018-02-20T00:08:30.271Z,25.38
2018-02-20T00:09:30.267Z,25.45
2018-02-20T00:10:30.265Z,25.45
2018-02-20T00:11:30.265Z,25.45
2018-02-20T00:12:30.257Z,25.44
2018-02-20T00:13:30.253Z,25.41
2018-02-20T00:14:30.251Z,25.41
2018-02-20T00:15:30.246Z,25.35
2018-02-20T00:16:30.241Z,25.35
2018-02-20T00:17:30.238Z,25.34
2018-02-20T00:18:30.234Z,25.35
2018-02-20T00:19:30.230Z,25.26
2018-02-20T00:20:30.227Z,25.30
2018-02-20T00:21:30.245Z,25.26
2018-02-20T00:22:30.222Z,25.22
2018-02-20T00:23:30.215Z,25.23
2018-02-20T00:24:30.216Z,25.14
2018-02-20T00:25:30.211Z,25.17
2018-02-20T00:26:30.207Z,25.16
2018-02-20T00:27:30.200Z,25.14
2018-02-20T00:28:30.199Z,25.11
2018-02-20T00:29:30.196Z,25.09
2018-02-20T00:30:30.190Z,25.11
2018-02-20T00:31:30.189Z,25.07
2018-02-20T00:32:30.182Z,25.11
2018-02-20T00:33:30.181Z,25.14
2018-02-20T00:34:30.182Z,25.11
2018-02-20T00:35:30.172Z,25.09
2018-02-20T00:36:30.168Z,25.07
2018-02-20T00:37:30.163Z,25.01
2018-02-20T00:38:30.160Z,24.94
2018-02-20T00:39:30.157Z,25.02
2018-02-20T00:40:30.154Z,25.02
2018-02-20T00:41:30.148Z,25.01
2018-02-20T00:42:30.144Z,24.98
2018-02-20T00:43:30.139Z,25.02
2018-02-20T00:44:30.136Z,24.99
2018-02-20T00:45:30.132Z,25.02
2018-02-20T00:46:30.129Z,25.04
2018-02-20T00:47:30.124Z,25.01
2018-02-20T00:48:30.122Z,25.04
2018-02-20T00:49:30.118Z,25.05
2018-02-20T00:50:30.114Z,24.99
2018-02-20T00:51:30.110Z,25.02
2018-02-20T00:52:30.106Z,24.99
2018-02-20T00:53:30.103Z,25.01
2018-02-20T00:54:30.098Z,25.07
2018-02-20T00:55:30.095Z,24.94
2018-02-20T00:56:30.091Z,25.02
2018-02-20T00:57:30.087Z,25.01
2018-02-20T00:58:30.083Z,24.93
2018-02-20T00:59:30.079Z,24.92
2018-02-20T01:00:30.076Z,24.93
2018-02-20T01:01:30.075Z,24.93
2018-02-20T01:02:30.068Z,24.90
2018-02-20T01:03:30.068Z,24.94
2018-02-20T01:04:30.060Z,24.97
2018-02-20T01:05:30.068Z,24.99
2018-02-20T01:06:30.053Z,24.92
2018-02-20T01:07:30.048Z,24.93
2018-02-20T01:08:30.045Z,24.93
2018-02-20T01:09:30.045Z,24.86
2018-02-20T01:10:30.039Z,24.89
2018-02-20T01:11:30.033Z,24.92
2018-02-20T01:12:30.030Z,24.77
2018-02-20T01:13:30.028Z,24.80
2018-02-20T01:14:30.022Z,24.77
2018-02-20T01:15:30.023Z,24.82
2018-02-20T01:16:30.016Z,24.75
2018-02-20T01:17:30.016Z,24.70
2018-02-20T01:18:30.007Z,24.77
2018-02-20T01:19:30.009Z,24.79
2018-02-20T01:20:30.000Z,24.70
2018-02-20T01:21:30.007Z,24.75
2018-02-20T01:22:29.993Z,24.67
2018-02-20T01:23:30.004Z,24.75
2018-02-20T01:24:29.985Z,24.67
2018-02-20T01:25:29.980Z,24.70
2018-02-20T01:26:29.977Z,24.68
2018-02-20T01:27:29.972Z,24.77
2018-02-20T01:28:29.969Z,24.74
2018-02-20T01:29:29.966Z,24.71
2018-02-20T01:30:29.964Z,24.75
2018-02-20T01:31:29.956Z,24.74
2018-02-20T01:32:29.952Z,24.74
2018-02-20T01:33:29.953Z,24.67
2018-02-20T01:34:29.945Z,24.79
2018-02-20T01:35:29.941Z,24.68
2018-02-20T01:36:29.936Z,24.71
2018-02-20T01:37:29.933Z,24.64
2018-02-20T01:38:29.929Z,24.67
2018-02-20T01:39:29.924Z,24.74
2018-02-20T01:40:29.921Z,24.63
2018-02-20T01:41:29.917Z,24.61
2018-02-20T01:42:29.913Z,24.63
2018-02-20T01:43:29.910Z,24.66
2018-02-20T01:44:29.905Z,24.67
2018-02-20T01:45:29.901Z,24.64
2018-02-20T01:46:29.898Z,24.64
2018-02-20T01:47:29.893Z,24.64
2018-02-20T01:48:29.889Z,24.67
2018-02-20T01:49:29.886Z,24.75
2018-02-20T01:50:29.881Z,24.68
2018-02-20T01:51:29.877Z,24.63
2018-02-20T01:52:29.873Z,24.64
2018-02-20T01:53:29.869Z,24.63
2018-02-20T01:54:29.867Z,24.70
2018-02-20T01:55:29.861Z,24.64
2018-02-20T01:56:29.857Z,24.63
2018-02-20T01:57:29.853Z,24.63
2018-02-20T01:58:29.849Z,24.61
2018-02-20T01:59:29.845Z,24.63
2018-02-20T02:00:29.841Z,24.63
2018-02-20T02:01:29.837Z,24.66
2018-02-20T02:02:29.838Z,24.64
2018-02-20T02:03:29.829Z,24.63
2018-02-20T02:04:29.827Z,24.60
2018-02-20T02:05:29.822Z,24.60
2018-02-20T02:06:29.819Z,24.55
2018-02-20T02:07:29.813Z,24.59
2018-02-20T02:08:29.810Z,24.49
2018-02-20T02:09:29.811Z,24.45
2018-02-20T02:10:29.802Z,24.42
2018-02-20T02:11:29.797Z,24.48
2018-02-20T02:12:29.793Z,24.44
2018-02-20T02:13:29.788Z,24.34
2018-02-20T02:14:29.785Z,24.37
2018-02-20T02:15:29.781Z,24.42
2018-02-20T02:16:29.776Z,24.45
2018-02-20T02:17:29.772Z,24.31
2018-02-20T02:18:29.768Z,24.41
2018-02-20T02:19:29.764Z,24.44
2018-02-20T02:20:29.762Z,24.46
2018-02-20T02:21:29.756Z,24.41
2018-02-20T02:22:29.751Z,24.49
2018-02-20T02:23:29.746Z,24.56
2018-02-20T02:24:29.746Z,24.45
2018-02-20T02:25:29.738Z,24.48
2018-02-20T02:26:29.734Z,24.46
2018-02-20T02:27:29.729Z,24.51
2018-02-20T02:28:29.725Z,24.46
2018-02-20T02:29:29.722Z,24.41
2018-02-20T02:30:29.718Z,24.48
2018-02-20T02:31:29.713Z,24.46
2018-02-20T02:32:29.719Z,24.48
2018-02-20T02:33:29.706Z,24.55
2018-02-20T02:34:29.701Z,24.55
2018-02-20T02:35:29.697Z,24.56
2018-02-20T02:36:29.694Z,24.52
2018-02-20T02:37:29.688Z,24.55
2018-02-20T02:38:29.684Z,24.51
2018-02-20T02:39:29.680Z,24.51
2018-02-20T02:40:29.680Z,24.59
2018-02-20T02:41:29.673Z,24.53
2018-02-20T02:42:29.673Z,24.61
2018-02-20T02:43:29.663Z,24.59
2018-02-20T02:44:29.659Z,24.45
2018-02-20T02:45:29.660Z,24.52
2018-02-20T02:46:29.652Z,24.49
2018-02-20T02:47:29.646Z,24.48
2018-02-20T02:48:29.644Z,24.51
2018-02-20T02:49:29.643Z,24.48
2018-02-20T02:50:29.635Z,24.48
2018-02-20T02:51:29.635Z,24.44
2018-02-20T02:52:29.631Z,24.44
2018-02-20T02:53:29.622Z,24.46
2018-02-20T02:54:29.620Z,24.51
2018-02-20T02:55:29.614Z,24.49
2018-02-20T02:56:29.610Z,24.46
2018-02-20T02:57:29.611Z,24.48
2018-02-20T02:58:29.602Z,24.48
2018-02-20T02:59:29.595Z,24.44
2018-02-20T03:00:29.597Z,24.46
2018-02-20T03:01:29.588Z,24.49
2018-02-20T03:02:29.583Z,24.46
2018-02-20T03:03:29.578Z,24.48
2018-02-20T03:04:29.576Z,24.49
2018-02-20T03:05:29.571Z,24.45
2018-02-20T03:06:29.566Z,24.51
2018-02-20T03:07:29.561Z,24.46
2018-02-20T03:08:29.557Z,24.51
2018-02-20T03:09:29.558Z,24.49
2018-02-20T03:10:29.554Z,24.55
2018-02-20T03:11:29.544Z,24.46
2018-02-20T03:12:29.541Z,24.44
2018-02-20T03:13:29.541Z,24.49
2018-02-20T03:14:29.540Z,24.39
2018-02-20T03:15:29.532Z,24.31
2018-02-20T03:16:29.527Z,24.34
2018-02-20T03:17:29.520Z,24.41
2018-02-20T03:18:29.520Z,24.42
2018-02-20T03:19:29.511Z,24.42
2018-02-20T03:20:29.510Z,24.31
2018-02-20T03:21:29.507Z,24.39
2018-02-20T03:22:29.498Z,24.46
2018-02-20T03:23:29.493Z,24.36
2018-02-20T03:24:29.494Z,24.41
2018-02-20T03:25:29.490Z,24.45
2018-02-20T03:26:29.482Z,24.49
2018-02-20T03:27:29.481Z,24.44
2018-02-20T03:28:29.473Z,24.48
2018-02-20T03:29:29.469Z,24.48
2018-02-20T03:30:29.464Z,24.48
2018-02-20T03:31:29.461Z,24.48
2018-02-20T03:32:29.456Z,24.49
2018-02-20T03:33:29.452Z,24.44
2018-02-20T03:34:29.447Z,24.44
2018-02-20T03:35:29.443Z,24.33
2018-02-20T03:36:29.448Z,24.36
2018-02-20T03:37:29.435Z,24.44
2018-02-20T03:38:29.435Z,24.33
2018-02-20T03:39:29.426Z,24.33
2018-02-20T03:40:29.426Z,24.33
2018-02-20T03:41:29.418Z,24.36
2018-02-20T03:42:29.421Z,24.36
2018-02-20T03:43:29.409Z,24.41
2018-02-20T03:44:29.405Z,24.33
2018-02-20T03:45:29.401Z,24.33
2018-02-20T03:46:29.402Z,24.37
2018-02-20T03:47:29.394Z,24.34
2018-02-20T03:48:29.394Z,24.24
2018-02-20T03:49:29.385Z,24.29
2018-02-20T03:50:29.386Z,24.21
2018-02-20T03:51:29.381Z,24.34
2018-02-20T03:52:29.377Z,24.30
2018-02-20T03:53:29.373Z,24.33
2018-02-20T03:54:29.381Z,24.24
2018-02-20T03:55:29.383Z,24.27
2018-02-20T03:56:29.372Z,24.34
2018-02-20T03:57:29.352Z,24.26
2018-02-20T03:58:29.369Z,24.24
2018-02-20T03:59:29.360Z,24.26
2018-02-20T04:00:29.343Z,24.29
2018-02-20T04:01:29.335Z,24.29
2018-02-20T04:02:29.332Z,24.21
2018-02-20T04:03:29.326Z,24.23
2018-02-20T04:04:29.327Z,24.24
2018-02-20T04:05:29.322Z,24.18
2018-02-20T04:06:29.314Z,24.23
2018-02-20T04:07:29.309Z,24.12
2018-02-20T04:08:29.323Z,24.16
2018-02-20T04:09:29.301Z,24.12
2018-02-20T04:10:29.301Z,24.05
2018-02-20T04:11:29.292Z,24.11
2018-02-20T04:12:29.293Z,24.14
2018-02-20T04:13:29.287Z,24.09
2018-02-20T04:14:29.280Z,24.00
2018-02-20T04:15:29.280Z,24.04
2018-02-20T04:16:29.272Z,23.94
2018-02-20T04:17:29.284Z,23.93
2018-02-20T04:18:29.280Z,24.02
2018-02-20T04:19:29.261Z,23.96
2018-02-20T04:20:29.253Z,23.96
2018-02-20T04:21:29.250Z,24.04
2018-02-20T04:22:29.244Z,24.00
2018-02-20T04:23:29.299Z,24.04
2018-02-20T04:24:29.256Z,24.08
2018-02-20T04:25:29.238Z,24.05
2018-02-20T04:26:29.227Z,24.08
2018-02-20T04:27:29.226Z,24.00
2018-02-20T04:28:29.221Z,23.93
2018-02-20T04:29:29.213Z,24.00
2018-02-20T04:30:29.213Z,23.92
2018-02-20T04:31:29.208Z,23.99
2018-02-20T04:32:29.203Z,23.90
2018-02-20T04:33:29.199Z,24.02
2018-02-20T04:34:29.195Z,24.05
2018-02-20T04:35:29.189Z,23.94
2018-02-20T04:36:29.182Z,23.97
2018-02-20T04:37:29.176Z,24.00
2018-02-20T04:38:29.176Z,24.04
2018-02-20T04:39:29.167Z,24.00
2018-02-20T04:40:29.179Z,24.04
2018-02-20T04:41:29.158Z,24.00
2018-02-20T04:42:29.158Z,24.08
2018-02-20T04:43:29.149Z,24.04
2018-02-20T04:44:29.145Z,24.16
2018-02-20T04:45:29.145Z,24.14
2018-02-20T04:46:29.158Z,24.05
2018-02-20T04:47:29.135Z,24.06
2018-02-20T04:48:29.127Z,24.14
2018-02-20T04:49:29.140Z,24.08
2018-02-20T04:50:29.122Z,24.09
2018-02-20T04:51:29.117Z,24.06
2018-02-20T04:52:29.112Z,24.06
2018-02-20T04:53:29.105Z,24.15
2018-02-20T04:54:29.100Z,24.15
2018-02-20T04:55:29.099Z,24.04
2018-02-20T04:56:29.091Z,24.09
2018-02-20T04:57:29.086Z,24.08
2018-02-20T04:58:29.087Z,24.12
2018-02-20T04:59:29.077Z,24.11
2018-02-20T05:00:29.078Z,24.08
2018-02-20T05:01:29.069Z,23.99
2018-02-20T05:02:29.069Z,24.05
2018-02-20T05:03:29.059Z,24.00
2018-02-20T05:04:29.060Z,24.11
2018-02-20T05:05:29.055Z,24.04
2018-02-20T05:06:29.047Z,24.04
2018-02-20T05:07:29.046Z,24.02
2018-02-20T05:08:29.042Z,24.04
2018-02-20T05:09:29.037Z,24.04
2018-02-20T05:10:29.033Z,24.00
2018-02-20T05:11:29.028Z,24.04
2018-02-20T05:12:29.020Z,23.99
2018-02-20T05:13:29.015Z,23.89
2018-02-20T05:14:29.011Z,23.97
2018-02-20T05:15:29.011Z,23.94
2018-02-20T05:16:29.002Z,23.89
2018-02-20T05:17:29.002Z,23.89
2018-02-20T05:18:28.994Z,23.89
2018-02-20T05:19:28.992Z,23.90
2018-02-20T05:20:28.988Z,23.89
2018-02-20T05:21:28.981Z,23.92
2018-02-20T05:22:28.975Z,23.92
2018-02-20T05:23:28.970Z,23.93
2018-02-20T05:24:28.966Z,23.92
2018-02-20T05:25:28.960Z,23.90
2018-02-20T05:26:28.957Z,23.84
2018-02-20T05:27:28.952Z,23.84
2018-02-20T05:28:28.953Z,23.81
2018-02-20T05:29:28.944Z,23.71
2018-02-20T05:30:28.939Z,23.74
2018-02-20T05:31:28.935Z,23.86
2018-02-20T05:32:28.933Z,23.82
2018-02-20T05:33:28.926Z,23.86
2018-02-20T05:34:28.926Z,23.77
2018-02-20T05:35:28.917Z,23.78
2018-02-20T05:36:28.912Z,23.71
2018-02-20T05:37:28.903Z,23.67
2018-02-20T05:38:28.912Z,23.69
2018-02-20T05:39:28.900Z,23.68
2018-02-20T05:40:28.896Z,23.72
2018-02-20T05:41:28.896Z,23.68
2018-02-20T05:42:28.880Z,23.74
2018-02-20T05:43:28.877Z,23.71
2018-02-20T05:44:28.876Z,23.78
2018-02-20T05:45:28.869Z,23.71
2018-02-20T05:46:28.862Z,23.69
2018-02-20T05:47:28.892Z,23.74
2018-02-20T05:48:28.859Z,23.75
2018-02-20T05:49:28.849Z,23.71
2018-02-20T05:50:28.858Z,23.77
2018-02-20T05:51:28.858Z,23.72
2018-02-20T05:52:28.836Z,23.74
2018-02-20T05:53:28.836Z,23.68
2018-02-20T05:54:28.844Z,23.69
2018-02-20T05:55:28.827Z,23.62
2018-02-20T05:56:28.823Z,23.62
2018-02-20T05:57:28.818Z,23.57
2018-02-20T05:58:28.818Z,23.63
2018-02-20T05:59:28.812Z,23.59
2018-02-20T06:00:28.804Z,23.49
2018-02-20T06:01:28.803Z,23.59
2018-02-20T06:02:28.798Z,23.64
2018-02-20T06:03:28.800Z,23.64
2018-02-20T06:04:28.784Z,23.60
2018-02-20T06:05:28.786Z,23.59
2018-02-20T06:06:28.777Z,23.49
2018-02-20T06:07:28.770Z,23.60
2018-02-20T06:08:28.770Z,23.50
2018-02-20T06:09:28.761Z,23.50
2018-02-20T06:10:28.756Z,23.42
2018-02-20T06:11:28.751Z,23.44
2018-02-20T06:12:28.746Z,23.57
2018-02-20T06:13:28.742Z,23.49
2018-02-20T06:14:28.737Z,23.47
2018-02-20T06:15:28.731Z,23.45
2018-02-20T06:16:28.831Z,23.39
2018-02-20T06:17:28.721Z,23.32
2018-02-20T06:18:28.722Z,23.31
2018-02-20T06:19:28.715Z,23.32
2018-02-20T06:20:28.707Z,23.15
2018-02-20T06:21:28.751Z,23.26
2018-02-20T06:22:28.680Z,23.21
2018-02-20T06:23:28.691Z,23.14
2018-02-20T06:24:28.684Z,23.11
2018-02-20T06:25:28.686Z,23.06
2018-02-20T06:26:28.664Z,23.21
2018-02-20T06:27:28.675Z,23.12
2018-02-20T06:28:28.670Z,23.09
2018-02-20T06:29:28.656Z,23.09
2018-02-20T06:30:28.660Z,23.09
2018-02-20T06:31:28.633Z,23.01
2018-02-20T06:32:28.637Z,22.97
2018-02-20T06:33:28.622Z,23.03
2018-02-20T06:34:28.618Z,22.96
2018-02-20T06:35:28.616Z,22.97
2018-02-20T06:36:28.622Z,22.88
2018-02-20T06:37:28.620Z,22.97
2018-02-20T06:38:28.596Z,22.84
2018-02-20T06:39:28.609Z,22.86
2018-02-20T06:40:28.681Z,22.88
2018-02-20T06:41:28.590Z,22.89
2018-02-20T06:42:28.570Z,22.86
2018-02-20T06:43:28.583Z,22.93
2018-02-20T06:44:28.573Z,22.86
2018-02-20T06:45:28.573Z,22.82
2018-02-20T06:46:28.648Z,22.82
2018-02-20T06:47:28.541Z,22.88
2018-02-20T06:48:28.557Z,22.89
2018-02-20T06:49:28.546Z,22.93
2018-02-20T06:50:28.546Z,22.85
2018-02-20T06:51:28.525Z,22.91
2018-02-20T06:52:28.514Z,22.89
2018-02-20T06:53:28.510Z,22.88
2018-02-20T06:54:28.526Z,22.81
2018-02-20T06:55:28.508Z,22.86
2018-02-20T06:56:28.499Z,22.85
2018-02-20T06:57:28.494Z,22.76
2018-02-20T06:58:28.492Z,22.75
2018-02-20T06:59:28.497Z,22.82
2018-02-20T07:00:28.492Z,22.82
2018-02-20T07:01:28.487Z,22.74
2018-02-20T07:02:28.485Z,22.67
2018-02-20T07:03:28.479Z,22.70
2018-02-20T07:04:28.474Z,22.66
2018-02-20T07:05:28.458Z,22.72
2018-02-20T07:06:28.449Z,22.74
2018-02-20T07:07:28.442Z,22.70
2018-02-20T07:08:28.428Z,22.67
2018-02-20T07:09:28.433Z,22.63
2018-02-20T07:10:28.427Z,22.67
2018-02-20T07:11:28.415Z,22.61
2018-02-20T07:12:28.420Z,22.64
2018-02-20T07:13:28.424Z,22.61
2018-02-20T07:14:28.405Z,22.70
2018-02-20T07:15:28.412Z,22.67
2018-02-20T07:16:28.407Z,22.60
2018-02-20T07:17:28.387Z,22.63
2018-02-20T07:18:28.393Z,22.63
2018-02-20T07:19:28.386Z,22.59
2018-02-20T07:20:28.385Z,22.67
2018-02-20T07:21:28.370Z,22.67
2018-02-20T07:22:28.369Z,22.61
2018-02-20T07:23:28.368Z,22.63
2018-02-20T07:24:28.347Z,22.74
2018-02-20T07:25:28.356Z,22.70
2018-02-20T07:26:28.341Z,22.67
2018-02-20T07:27:28.336Z,22.67
2018-02-20T07:28:28.316Z,22.76
2018-02-20T07:29:28.320Z,22.72
2018-02-20T07:30:28.306Z,22.67
2018-02-20T07:31:28.299Z,22.69
2018-02-20T07:32:28.298Z,22.70
2018-02-20T07:33:28.308Z,22.66
2018-02-20T07:34:28.293Z,22.66
2018-02-20T07:35:28.276Z,22.67
2018-02-20T07:36:28.287Z,22.66
2018-02-20T07:37:28.291Z,22.74
2018-02-20T07:38:28.307Z,22.64
2018-02-20T07:39:28.264Z,22.66
2018-02-20T07:40:28.250Z,22.74
2018-02-20T07:41:28.270Z,22.72
2018-02-20T07:42:28.239Z,22.67
2018-02-20T07:43:28.242Z,22.70
2018-02-20T07:44:28.250Z,22.67
2018-02-20T07:45:28.239Z,22.69
2018-02-20T07:46:28.234Z,22.61
2018-02-20T07:47:28.212Z,22.66
2018-02-20T07:48:28.205Z,22.64
2018-02-20T07:49:28.218Z,22.75
2018-02-20T07:50:28.212Z,22.66
2018-02-20T07:51:28.208Z,22.59
2018-02-20T07:52:28.200Z,22.61
2018-02-20T07:53:28.195Z,22.70
2018-02-20T07:54:28.190Z,22.66
2018-02-20T07:55:28.167Z,22.63
2018-02-20T07:56:28.161Z,22.72
2018-02-20T07:57:28.173Z,22.67
2018-02-20T07:58:28.169Z,22.60
2018-02-20T07:59:28.145Z,22.57
2018-02-20T08:00:28.139Z,22.61
2018-02-20T08:01:28.134Z,22.54
2018-02-20T08:02:28.132Z,22.64
2018-02-20T08:03:28.122Z,22.63
2018-02-20T08:04:28.134Z,22.66
2018-02-20T08:05:28.132Z,22.60
2018-02-20T08:06:28.124Z,22.61
2018-02-20T08:07:28.115Z,22.57
2018-02-20T08:08:28.110Z,22.59
2018-02-20T08:09:28.108Z,22.60
2018-02-20T08:10:28.200Z,22.59
2018-02-20T08:11:28.095Z,22.63
2018-02-20T08:12:28.089Z,22.61
2018-02-20T08:13:28.084Z,22.63
2018-02-20T08:14:28.081Z,22.67
2018-02-20T08:15:28.071Z,22.60
2018-02-20T08:16:28.053Z,22.66
2018-02-20T08:17:28.086Z,22.69
2018-02-20T08:18:28.053Z,22.64
2018-02-20T08:19:28.036Z,22.72
2018-02-20T08:20:28.045Z,22.57
2018-02-20T08:21:28.039Z,22.60
2018-02-20T08:22:28.043Z,22.60
2018-02-20T08:23:28.014Z,22.59
2018-02-20T08:24:28.022Z,22.61
2018-02-20T08:25:28.002Z,22.61
2018-02-20T08:26:27.998Z,22.52
2018-02-20T08:27:28.006Z,22.60
2018-02-20T08:28:28.001Z,22.63
2018-02-20T08:29:27.995Z,22.52
2018-02-20T08:30:27.990Z,22.54
2018-02-20T08:31:27.968Z,22.48
2018-02-20T08:32:27.989Z,22.49
2018-02-20T08:33:27.962Z,22.46
2018-02-20T08:34:27.955Z,22.46
2018-02-20T08:35:27.971Z,22.56
2018-02-20T08:36:27.967Z,22.51
2018-02-20T08:37:27.951Z,22.46
2018-02-20T08:38:27.946Z,22.45
2018-02-20T08:39:27.939Z,22.57
2018-02-20T08:40:27.929Z,22.48
2018-02-20T08:41:27.913Z,22.49
2018-02-20T08:42:27.959Z,22.49
2018-02-20T08:43:27.902Z,22.52
2018-02-20T08:44:27.897Z,22.56
2018-02-20T08:45:27.891Z,22.54
2018-02-20T08:46:27.889Z,22.49
2018-02-20T08:47:27.889Z,22.46
2018-02-20T08:48:27.876Z,22.49
2018-02-20T08:49:27.870Z,22.46
2018-02-20T08:50:27.864Z,22.49
2018-02-20T08:51:27.858Z,22.48
2018-02-20T08:52:27.865Z,22.49
2018-02-20T08:53:27.847Z,22.44
2018-02-20T08:54:27.847Z,22.46
2018-02-20T08:55:27.835Z,22.42
2018-02-20T08:56:27.829Z,22.38
2018-02-20T08:57:27.824Z,22.44
2018-02-20T08:58:27.819Z,22.39
2018-02-20T08:59:27.812Z,22.44
2018-02-20T09:00:27.816Z,22.41
2018-02-20T09:01:27.803Z,22.42
2018-02-20T09:02:27.805Z,22.44
2018-02-20T09:03:27.790Z,22.46
2018-02-20T09:04:27.794Z,22.46
2018-02-20T09:05:27.788Z,22.46
2018-02-20T09:06:27.787Z,22.52
2018-02-20T09:07:27.776Z,22.46
2018-02-20T09:08:27.762Z,22.52
2018-02-20T09:09:27.770Z,22.48
2018-02-20T09:10:27.765Z,22.52
2018-02-20T09:11:27.745Z,22.49
2018-02-20T09:12:27.739Z,22.52
2018-02-20T09:13:27.734Z,22.49
2018-02-20T09:14:27.746Z,22.45
2018-02-20T09:15:27.723Z,22.44
2018-02-20T09:16:27.817Z,22.42
2018-02-20T09:17:27.726Z,22.41
2018-02-20T09:18:27.723Z,22.41
2018-02-20T09:19:27.714Z,22.45
2018-02-20T09:20:27.709Z,22.41
2018-02-20T09:21:27.705Z,22.46
2018-02-20T09:22:27.697Z,22.44
2018-02-20T09:23:27.701Z,22.41
2018-02-20T09:24:27.672Z,22.42
2018-02-20T09:25:27.680Z,22.41
2018-02-20T09:26:27.675Z,22.39
2018-02-20T09:27:27.669Z,22.45
2018-02-20T09:28:27.673Z,22.38
2018-02-20T09:29:27.658Z,22.46
2018-02-20T09:30:27.662Z,22.45
2018-02-20T09:31:27.645Z,22.42
2018-02-20T09:32:27.639Z,22.39
2018-02-20T09:33:27.635Z,22.42
2018-02-20T09:34:27.629Z,22.46
2018-02-20T09:35:27.622Z,22.46
2018-02-20T09:36:27.617Z,22.44
2018-02-20T09:37:27.616Z,22.46
2018-02-20T09:38:27.610Z,22.49
2018-02-20T09:39:27.600Z,22.44
2018-02-20T09:40:27.594Z,22.46
2018-02-20T09:41:27.598Z,22.46
2018-02-20T09:42:27.592Z,22.48
2018-02-20T09:43:27.576Z,22.49
2018-02-20T09:44:27.571Z,22.46
2018-02-20T09:45:27.565Z,22.49
2018-02-20T09:46:27.569Z,22.51
2018-02-20T09:47:27.556Z,22.61
2018-02-20T09:48:27.548Z,22.56
2018-02-20T09:49:27.543Z,22.59
2018-02-20T09:50:27.537Z,22.60
2018-02-20T09:51:27.542Z,22.57
2018-02-20T09:52:27.535Z,22.63
2018-02-20T09:53:27.529Z,22.69
2018-02-20T09:54:27.514Z,22.61
2018-02-20T09:55:27.510Z,22.66
2018-02-20T09:56:27.515Z,22.69
2018-02-20T09:57:27.499Z,22.70
2018-02-20T09:58:27.491Z,22.64
2018-02-20T09:59:27.488Z,22.64
2018-02-20T10:00:27.483Z,22.70
2018-02-20T10:01:27.486Z,22.74
2018-02-20T10:02:27.473Z,22.72
2018-02-20T10:03:27.464Z,22.66
2018-02-20T10:04:27.459Z,22.84
2018-02-20T10:05:27.454Z,22.81
2018-02-20T10:06:27.453Z,22.81
2018-02-20T10:07:27.447Z,22.81
2018-02-20T10:08:27.436Z,22.89
2018-02-20T10:09:27.431Z,22.84
2018-02-20T10:10:27.426Z,22.89
2018-02-20T10:11:27.420Z,22.88
2018-02-20T10:12:27.414Z,22.84
2018-02-20T10:13:27.419Z,22.93
2018-02-20T10:14:27.405Z,22.85
2018-02-20T10:15:27.397Z,22.86
2018-02-20T10:16:27.498Z,22.97
2018-02-20T10:17:27.400Z,22.88
2018-02-20T10:18:27.387Z,22.91
2018-02-20T10:19:27.381Z,22.99
2018-02-20T10:20:27.371Z,22.96
2018-02-20T10:21:27.370Z,22.97
2018-02-20T10:22:27.365Z,23.00
2018-02-20T10:23:27.336Z,23.09
2018-02-20T10:24:27.336Z,23.14
2018-02-20T10:25:27.352Z,23.15
2018-02-20T10:26:27.347Z,23.11
2018-02-20T10:27:27.319Z,23.11
2018-02-20T10:28:27.332Z,23.12
2018-02-20T10:29:27.304Z,23.15
2018-02-20T10:30:27.309Z,23.12
2018-02-20T10:31:27.298Z,23.16
2018-02-20T10:32:27.292Z,23.11
2018-02-20T10:33:27.283Z,23.21
2018-02-20T10:34:27.277Z,23.26
2018-02-20T10:35:27.276Z,23.26
2018-02-20T10:36:27.271Z,23.39
2018-02-20T10:37:27.287Z,23.41
2018-02-20T10:38:27.265Z,23.34
2018-02-20T10:39:27.255Z,23.35
2018-02-20T10:40:27.270Z,23.25
2018-02-20T10:41:27.245Z,23.34
2018-02-20T10:42:27.251Z,23.45
2018-02-20T10:43:27.230Z,23.44
2018-02-20T10:44:27.245Z,23.50
2018-02-20T10:45:27.236Z,23.59
2018-02-20T10:46:27.231Z,23.60
2018-02-20T10:47:27.444Z,23.74
2018-02-20T10:48:27.202Z,23.74
2018-02-20T10:49:27.214Z,23.75
2018-02-20T10:50:27.194Z,23.72
2018-02-20T10:51:27.187Z,23.75
2018-02-20T10:52:27.199Z,23.69
2018-02-20T10:53:27.183Z,23.69
2018-02-20T10:54:27.172Z,23.71
2018-02-20T10:55:27.183Z,23.77
2018-02-20T10:56:27.183Z,23.89
2018-02-20T10:57:27.179Z,23.92
2018-02-20T10:58:27.168Z,23.96
2018-02-20T10:59:27.163Z,23.93
2018-02-20T11:00:27.159Z,23.86
2018-02-20T11:01:27.153Z,23.82
2018-02-20T11:02:27.149Z,23.87
2018-02-20T11:03:27.144Z,23.94
2018-02-20T11:04:27.148Z,23.90
2018-02-20T11:05:27.135Z,23.96
2018-02-20T11:06:27.130Z,23.94
2018-02-20T11:07:27.134Z,23.90
2018-02-20T11:08:27.129Z,24.02
2018-02-20T11:09:27.118Z,24.06
2018-02-20T11:10:27.113Z,24.05
2018-02-20T11:11:27.114Z,24.08
2018-02-20T11:12:27.107Z,24.14
2018-02-20T11:13:27.105Z,24.19
2018-02-20T11:14:27.100Z,24.23
2018-02-20T11:15:27.095Z,24.26
2018-02-20T11:16:27.087Z,24.24
2018-02-20T11:17:27.075Z,24.24
2018-02-20T11:18:27.077Z,24.23
2018-02-20T11:19:27.072Z,24.29
2018-02-20T11:20:27.071Z,24.30
2018-02-20T11:21:27.218Z,24.37
2018-02-20T11:22:27.054Z,24.41
2018-02-20T11:23:27.051Z,24.36
2018-02-20T11:24:27.052Z,24.31
2018-02-20T11:25:27.038Z,24.36
2018-02-20T11:26:27.043Z,24.15
2018-02-20T11:27:27.036Z,24.29
2018-02-20T11:28:27.028Z,24.33
2018-02-20T11:29:27.027Z,24.36
2018-02-20T11:30:27.023Z,24.33
2018-02-20T11:31:27.024Z,24.31
2018-02-20T11:32:27.013Z,24.34
2018-02-20T11:33:27.014Z,24.45
2018-02-20T11:34:27.002Z,24.53
2018-02-20T11:35:26.997Z,24.53
2018-02-20T11:36:26.998Z,24.46
2018-02-20T11:37:26.991Z,24.31
2018-02-20T11:38:26.993Z,24.41
2018-02-20T11:39:26.984Z,24.39
2018-02-20T11:40:26.977Z,24.48
2018-02-20T11:41:26.970Z,24.45
2018-02-20T11:42:26.972Z,24.51
2018-02-20T11:43:26.969Z,24.46
2018-02-20T11:44:26.957Z,24.55
2018-02-20T11:45:26.950Z,24.63
2018-02-20T11:46:26.939Z,24.55
2018-02-20T11:47:26.951Z,24.45
2018-02-20T11:48:26.930Z,24.53
2018-02-20T11:49:26.926Z,24.59
2018-02-20T11:50:26.938Z,24.53
2018-02-20T11:51:26.934Z,24.63
2018-02-20T11:52:26.926Z,24.79
2018-02-20T11:53:26.959Z,24.83
2018-02-20T11:54:26.900Z,24.89
2018-02-20T11:55:26.900Z,24.90
2018-02-20T11:56:26.913Z,24.80
2018-02-20T11:57:26.888Z,24.66
2018-02-20T11:58:26.905Z,24.75
2018-02-20T11:59:26.879Z,24.92
2018-02-20T12:00:26.892Z,24.92
2018-02-20T12:01:26.914Z,24.93
2018-02-20T12:02:26.871Z,24.92
2018-02-20T12:03:26.879Z,24.97
2018-02-20T12:04:26.877Z,25.11
2018-02-20T12:05:26.874Z,24.94
2018-02-20T12:06:26.870Z,24.98
2018-02-20T12:07:26.847Z,25.16
2018-02-20T12:08:26.843Z,25.12
2018-02-20T12:09:26.839Z,25.14
2018-02-20T12:10:26.838Z,25.14
2018-02-20T12:11:26.845Z,25.23
2018-02-20T12:12:26.844Z,25.30
2018-02-20T12:13:26.841Z,25.31
2018-02-20T12:14:26.837Z,25.27
2018-02-20T12:15:26.829Z,25.26
2018-02-20T12:16:26.815Z,25.30
2018-02-20T12:17:26.807Z,25.36
2018-02-20T12:18:26.822Z,25.38
2018-02-20T12:19:26.813Z,25.57
2018-02-20T12:20:26.816Z,25.72
2018-02-20T12:21:26.935Z,25.71
2018-02-20T12:22:26.807Z,25.67
2018-02-20T12:23:26.805Z,25.76
2018-02-20T12:24:26.898Z,25.75
2018-02-20T12:25:26.791Z,25.76
2018-02-20T12:26:26.791Z,25.79
2018-02-20T12:27:26.794Z,25.82
2018-02-20T12:28:26.783Z,25.71
2018-02-20T12:29:26.784Z,25.75
2018-02-20T12:30:26.780Z,25.72
2018-02-20T12:31:26.781Z,25.75
2018-02-20T12:32:26.770Z,25.93
2018-02-20T12:33:26.771Z,25.97
2018-02-20T12:34:26.763Z,26.12
2018-02-20T12:35:26.757Z,26.16
2018-02-20T12:36:26.750Z,26.19
2018-02-20T12:37:26.752Z,26.01
2018-02-20T12:38:26.742Z,26.00
2018-02-20T12:39:26.745Z,26.09
2018-02-20T12:40:26.743Z,26.23
2018-02-20T12:41:26.740Z,26.28
2018-02-20T12:42:26.732Z,26.16
2018-02-20T12:43:26.731Z,26.19
2018-02-20T12:44:26.729Z,26.19
2018-02-20T12:45:26.740Z,26.12
2018-02-20T12:46:26.727Z,26.19
2018-02-20T12:47:26.722Z,26.23
2018-02-20T12:48:26.722Z,26.38
2018-02-20T12:49:26.718Z,26.28
2018-02-20T12:50:26.724Z,26.19
2018-02-20T12:51:26.703Z,26.23
2018-02-20T12:52:26.705Z,26.13